sensor_id;sensor_type;location;lat;lon;timestamp;P1;durP1;ratioP1;P2;durP2;ratioP2
19579;SDS011;9936;51.040;13.918;2023-12-20T00:01:49;4.23;;;2.97;;
19579;SDS011;9936;51.040;13.918;2023-12-20T00:05:34;3.10;;;2.80;;
19579;SDS011;9936;51.040;13.918;2023-12-20T00:09:23;3.97;;;2.90;;
19579;SDS011;9936;51.040;13.918;2023-12-20T00:13:08;4.57;;;2.90;;
19579;SDS011;9936;51.040;13.918;2023-12-20T00:16:54;3.67;;;2.80;;
19579;SDS011;9936;51.040;13.918;2023-12-20T00:20:40;3.50;;;2.90;;
19579;SDS011;9936;51.040;13.918;2023-12-20T00:24:26;3.40;;;2.83;;
19579;SDS011;9936;51.040;13.918;2023-12-20T00:28:11;5.83;;;3.17;;
19579;SDS011;9936;51.040;13.918;2023-12-20T00:31:57;5.57;;;3.03;;
19579;SDS011;9936;51.040;13.918;2023-12-20T00:35:42;3.20;;;2.20;;
19579;SDS011;9936;51.040;13.918;2023-12-20T00:39:28;3.90;;;2.80;;
19579;SDS011;9936;51.040;13.918;2023-12-20T00:43:14;4.00;;;2.80;;
19579;SDS011;9936;51.040;13.918;2023-12-20T00:46:59;3.70;;;2.73;;
19579;SDS011;9936;51.040;13.918;2023-12-20T00:50:46;2.87;;;2.40;;
19579;SDS011;9936;51.040;13.918;2023-12-20T00:54:31;4.53;;;2.80;;
19579;SDS011;9936;51.040;13.918;2023-12-20T00:58:17;2.73;;;2.40;;
19579;SDS011;9936;51.040;13.918;2023-12-20T01:02:03;4.97;;;2.73;;
19579;SDS011;9936;51.040;13.918;2023-12-20T01:05:48;2.60;;;2.10;;
19579;SDS011;9936;51.040;13.918;2023-12-20T01:09:34;3.27;;;2.23;;
19579;SDS011;9936;51.040;13.918;2023-12-20T01:13:19;2.60;;;2.13;;
19579;SDS011;9936;51.040;13.918;2023-12-20T01:17:05;2.43;;;1.90;;
19579;SDS011;9936;51.040;13.918;2023-12-20T01:20:51;2.47;;;2.00;;
19579;SDS011;9936;51.040;13.918;2023-12-20T01:24:36;2.30;;;1.80;;
19579;SDS011;9936;51.040;13.918;2023-12-20T01:28:22;2.27;;;1.80;;
19579;SDS011;9936;51.040;13.918;2023-12-20T01:32:07;2.40;;;1.80;;
19579;SDS011;9936;51.040;13.918;2023-12-20T01:35:53;2.50;;;1.57;;
19579;SDS011;9936;51.040;13.918;2023-12-20T01:39:39;2.37;;;1.70;;
19579;SDS011;9936;51.040;13.918;2023-12-20T01:43:24;2.20;;;1.70;;
19579;SDS011;9936;51.040;13.918;2023-12-20T01:47:10;1.70;;;1.47;;
19579;SDS011;9936;51.040;13.918;2023-12-20T01:50:55;2.63;;;1.70;;
19579;SDS011;9936;51.040;13.918;2023-12-20T01:54:41;1.73;;;1.40;;
19579;SDS011;9936;51.040;13.918;2023-12-20T01:58:28;1.00;;;1.00;;
19579;SDS011;9936;51.040;13.918;2023-12-20T02:02:13;1.97;;;1.40;;
19579;SDS011;9936;51.040;13.918;2023-12-20T02:05:59;2.00;;;1.40;;
19579;SDS011;9936;51.040;13.918;2023-12-20T02:09:45;4.00;;;1.27;;
19579;SDS011;9936;51.040;13.918;2023-12-20T02:13:31;1.80;;;1.30;;
19579;SDS011;9936;51.040;13.918;2023-12-20T02:17:17;1.40;;;1.30;;
19579;SDS011;9936;51.040;13.918;2023-12-20T02:21:04;1.70;;;1.30;;
19579;SDS011;9936;51.040;13.918;2023-12-20T02:24:50;1.63;;;1.50;;
19579;SDS011;9936;51.040;13.918;2023-12-20T02:28:36;1.23;;;1.00;;
19579;SDS011;9936;51.040;13.918;2023-12-20T02:32:21;1.43;;;1.10;;
19579;SDS011;9936;51.040;13.918;2023-12-20T02:36:11;0.90;;;0.90;;
19579;SDS011;9936;51.040;13.918;2023-12-20T02:39:56;1.47;;;1.23;;
19579;SDS011;9936;51.040;13.918;2023-12-20T02:43:42;1.03;;;0.93;;
19579;SDS011;9936;51.040;13.918;2023-12-20T02:47:28;1.10;;;1.00;;
19579;SDS011;9936;51.040;13.918;2023-12-20T02:51:14;0.90;;;0.90;;
19579;SDS011;9936;51.040;13.918;2023-12-20T02:55:00;2.20;;;1.00;;
19579;SDS011;9936;51.040;13.918;2023-12-20T02:58:46;1.27;;;1.10;;
19579;SDS011;9936;51.040;13.918;2023-12-20T03:02:31;0.87;;;0.80;;
19579;SDS011;9936;51.040;13.918;2023-12-20T03:06:19;1.23;;;0.93;;
19579;SDS011;9936;51.040;13.918;2023-12-20T03:10:05;0.83;;;0.83;;
19579;SDS011;9936;51.040;13.918;2023-12-20T03:13:53;2.00;;;1.00;;
19579;SDS011;9936;51.040;13.918;2023-12-20T03:17:39;1.00;;;0.67;;
19579;SDS011;9936;51.040;13.918;2023-12-20T03:21:24;0.80;;;0.80;;
19579;SDS011;9936;51.040;13.918;2023-12-20T03:25:10;1.00;;;0.90;;
19579;SDS011;9936;51.040;13.918;2023-12-20T03:28:56;0.87;;;0.80;;
19579;SDS011;9936;51.040;13.918;2023-12-20T03:32:41;0.80;;;0.80;;
19579;SDS011;9936;51.040;13.918;2023-12-20T03:36:27;1.07;;;0.97;;
19579;SDS011;9936;51.040;13.918;2023-12-20T03:40:12;0.83;;;0.83;;
19579;SDS011;9936;51.040;13.918;2023-12-20T03:43:58;0.90;;;0.90;;
19579;SDS011;9936;51.040;13.918;2023-12-20T03:47:44;1.03;;;0.93;;
19579;SDS011;9936;51.040;13.918;2023-12-20T03:51:29;0.83;;;0.80;;
19579;SDS011;9936;51.040;13.918;2023-12-20T03:55:15;1.00;;;0.90;;
19579;SDS011;9936;51.040;13.918;2023-12-20T03:59:00;1.00;;;0.90;;
19579;SDS011;9936;51.040;13.918;2023-12-20T04:02:46;1.03;;;0.93;;
19579;SDS011;9936;51.040;13.918;2023-12-20T04:06:31;0.97;;;0.83;;
19579;SDS011;9936;51.040;13.918;2023-12-20T04:10:17;1.00;;;0.90;;
19579;SDS011;9936;51.040;13.918;2023-12-20T04:14:03;1.27;;;0.80;;
19579;SDS011;9936;51.040;13.918;2023-12-20T04:17:52;1.30;;;0.87;;
19579;SDS011;9936;51.040;13.918;2023-12-20T04:21:37;0.97;;;0.73;;
19579;SDS011;9936;51.040;13.918;2023-12-20T04:25:23;0.97;;;0.83;;
19579;SDS011;9936;51.040;13.918;2023-12-20T04:29:09;0.93;;;0.90;;
19579;SDS011;9936;51.040;13.918;2023-12-20T04:32:54;1.30;;;0.90;;
19579;SDS011;9936;51.040;13.918;2023-12-20T04:36:40;1.40;;;0.90;;
19579;SDS011;9936;51.040;13.918;2023-12-20T04:40:25;1.00;;;0.80;;
19579;SDS011;9936;51.040;13.918;2023-12-20T04:44:11;1.00;;;0.90;;
19579;SDS011;9936;51.040;13.918;2023-12-20T04:47:56;1.07;;;0.90;;
19579;SDS011;9936;51.040;13.918;2023-12-20T04:51:42;1.00;;;0.90;;
19579;SDS011;9936;51.040;13.918;2023-12-20T04:55:28;1.13;;;1.00;;
19579;SDS011;9936;51.040;13.918;2023-12-20T04:59:14;1.03;;;0.90;;
19579;SDS011;9936;51.040;13.918;2023-12-20T05:03:00;1.00;;;0.90;;
19579;SDS011;9936;51.040;13.918;2023-12-20T05:06:45;1.80;;;1.00;;
19579;SDS011;9936;51.040;13.918;2023-12-20T05:10:31;2.03;;;0.93;;
19579;SDS011;9936;51.040;13.918;2023-12-20T05:14:16;1.33;;;1.00;;
19579;SDS011;9936;51.040;13.918;2023-12-20T05:18:02;3.07;;;1.10;;
19579;SDS011;9936;51.040;13.918;2023-12-20T05:21:48;0.90;;;0.90;;
19579;SDS011;9936;51.040;13.918;2023-12-20T05:25:34;1.00;;;0.90;;
19579;SDS011;9936;51.040;13.918;2023-12-20T05:29:22;0.90;;;0.83;;
19579;SDS011;9936;51.040;13.918;2023-12-20T05:33:07;0.97;;;0.90;;
19579;SDS011;9936;51.040;13.918;2023-12-20T05:36:54;2.33;;;1.07;;
19579;SDS011;9936;51.040;13.918;2023-12-20T05:40:39;1.10;;;1.00;;
19579;SDS011;9936;51.040;13.918;2023-12-20T05:44:28;1.20;;;1.10;;
19579;SDS011;9936;51.040;13.918;2023-12-20T05:48:24;1.30;;;1.20;;
19579;SDS011;9936;51.040;13.918;2023-12-20T05:52:10;2.00;;;1.33;;
19579;SDS011;9936;51.040;13.918;2023-12-20T05:55:55;1.10;;;1.00;;
19579;SDS011;9936;51.040;13.918;2023-12-20T05:59:41;1.40;;;1.00;;
19579;SDS011;9936;51.040;13.918;2023-12-20T06:03:26;1.73;;;1.20;;
19579;SDS011;9936;51.040;13.918;2023-12-20T06:07:12;1.03;;;1.00;;
19579;SDS011;9936;51.040;13.918;2023-12-20T06:10:58;1.30;;;0.93;;
19579;SDS011;9936;51.040;13.918;2023-12-20T06:14:44;1.20;;;1.10;;
19579;SDS011;9936;51.040;13.918;2023-12-20T06:18:29;1.30;;;1.20;;
19579;SDS011;9936;51.040;13.918;2023-12-20T06:22:15;2.13;;;1.20;;
19579;SDS011;9936;51.040;13.918;2023-12-20T06:26:01;1.10;;;1.00;;
19579;SDS011;9936;51.040;13.918;2023-12-20T06:29:46;2.90;;;1.30;;
19579;SDS011;9936;51.040;13.918;2023-12-20T06:33:32;1.30;;;1.20;;
19579;SDS011;9936;51.040;13.918;2023-12-20T06:37:18;1.33;;;1.23;;
19579;SDS011;9936;51.040;13.918;2023-12-20T06:41:04;1.40;;;1.30;;
19579;SDS011;9936;51.040;13.918;2023-12-20T06:44:50;2.57;;;1.67;;
19579;SDS011;9936;51.040;13.918;2023-12-20T06:48:35;2.10;;;1.90;;
19579;SDS011;9936;51.040;13.918;2023-12-20T06:52:22;2.53;;;2.23;;
19579;SDS011;9936;51.040;13.918;2023-12-20T06:56:07;2.40;;;2.20;;
19579;SDS011;9936;51.040;13.918;2023-12-20T06:59:55;2.63;;;2.30;;
19579;SDS011;9936;51.040;13.918;2023-12-20T07:03:40;2.57;;;2.30;;
19579;SDS011;9936;51.040;13.918;2023-12-20T07:07:26;3.10;;;2.80;;
19579;SDS011;9936;51.040;13.918;2023-12-20T07:11:12;2.77;;;2.50;;
19579;SDS011;9936;51.040;13.918;2023-12-20T07:14:58;10.20;;;3.57;;
19579;SDS011;9936;51.040;13.918;2023-12-20T07:18:43;3.97;;;3.27;;
19579;SDS011;9936;51.040;13.918;2023-12-20T07:22:29;4.30;;;2.90;;
19579;SDS011;9936;51.040;13.918;2023-12-20T07:26:18;4.57;;;3.90;;
19579;SDS011;9936;51.040;13.918;2023-12-20T07:30:04;7.20;;;4.40;;
19579;SDS011;9936;51.040;13.918;2023-12-20T07:33:50;5.10;;;4.13;;
19579;SDS011;9936;51.040;13.918;2023-12-20T07:37:36;8.00;;;4.00;;
19579;SDS011;9936;51.040;13.918;2023-12-20T07:41:21;4.47;;;3.67;;
19579;SDS011;9936;51.040;13.918;2023-12-20T07:45:08;7.27;;;5.47;;
19579;SDS011;9936;51.040;13.918;2023-12-20T07:48:55;4.60;;;3.93;;
19579;SDS011;9936;51.040;13.918;2023-12-20T07:52:41;7.07;;;3.50;;
19579;SDS011;9936;51.040;13.918;2023-12-20T07:56:27;4.53;;;3.77;;
19579;SDS011;9936;51.040;13.918;2023-12-20T08:00:13;4.67;;;4.07;;
19579;SDS011;9936;51.040;13.918;2023-12-20T08:03:58;4.73;;;3.53;;
19579;SDS011;9936;51.040;13.918;2023-12-20T08:07:44;4.40;;;3.60;;
19579;SDS011;9936;51.040;13.918;2023-12-20T08:11:30;3.77;;;3.37;;
19579;SDS011;9936;51.040;13.918;2023-12-20T08:15:15;3.97;;;3.57;;
19579;SDS011;9936;51.040;13.918;2023-12-20T08:19:02;4.43;;;3.43;;
19579;SDS011;9936;51.040;13.918;2023-12-20T08:22:48;5.20;;;3.50;;
19579;SDS011;9936;51.040;13.918;2023-12-20T08:26:33;4.57;;;3.43;;
19579;SDS011;9936;51.040;13.918;2023-12-20T08:30:19;4.40;;;3.70;;
19579;SDS011;9936;51.040;13.918;2023-12-20T08:34:06;4.20;;;3.20;;
19579;SDS011;9936;51.040;13.918;2023-12-20T08:37:52;7.40;;;3.00;;
19579;SDS011;9936;51.040;13.918;2023-12-20T08:41:38;3.83;;;2.67;;
19579;SDS011;9936;51.040;13.918;2023-12-20T08:45:23;3.47;;;2.37;;
19579;SDS011;9936;51.040;13.918;2023-12-20T08:49:10;5.57;;;2.40;;
19579;SDS011;9936;51.040;13.918;2023-12-20T08:52:56;5.97;;;2.13;;
19579;SDS011;9936;51.040;13.918;2023-12-20T08:56:41;4.53;;;2.00;;
19579;SDS011;9936;51.040;13.918;2023-12-20T09:00:27;3.80;;;1.60;;
19579;SDS011;9936;51.040;13.918;2023-12-20T09:04:13;2.20;;;1.60;;
19579;SDS011;9936;51.040;13.918;2023-12-20T09:07:59;6.00;;;2.20;;
19579;SDS011;9936;51.040;13.918;2023-12-20T09:11:44;3.83;;;1.90;;
19579;SDS011;9936;51.040;13.918;2023-12-20T09:15:33;1.90;;;1.40;;
19579;SDS011;9936;51.040;13.918;2023-12-20T09:19:19;3.57;;;1.30;;
19579;SDS011;9936;51.040;13.918;2023-12-20T09:23:05;4.23;;;1.33;;
19579;SDS011;9936;51.040;13.918;2023-12-20T09:26:51;1.80;;;1.20;;
19579;SDS011;9936;51.040;13.918;2023-12-20T09:30:36;1.47;;;1.00;;
19579;SDS011;9936;51.040;13.918;2023-12-20T09:34:24;3.20;;;1.20;;
19579;SDS011;9936;51.040;13.918;2023-12-20T09:38:10;4.80;;;1.10;;
19579;SDS011;9936;51.040;13.918;2023-12-20T09:42:01;4.83;;;1.20;;
19579;SDS011;9936;51.040;13.918;2023-12-20T09:45:54;4.57;;;1.90;;
19579;SDS011;9936;51.040;13.918;2023-12-20T09:49:52;3.87;;;1.70;;
19579;SDS011;9936;51.040;13.918;2023-12-20T09:53:44;3.77;;;1.50;;
19579;SDS011;9936;51.040;13.918;2023-12-20T09:57:33;6.10;;;1.70;;
19579;SDS011;9936;51.040;13.918;2023-12-20T10:01:19;5.03;;;1.60;;
19579;SDS011;9936;51.040;13.918;2023-12-20T10:05:07;2.93;;;1.37;;
19579;SDS011;9936;51.040;13.918;2023-12-20T10:08:56;4.37;;;1.77;;
19579;SDS011;9936;51.040;13.918;2023-12-20T10:12:44;3.60;;;1.60;;
19579;SDS011;9936;51.040;13.918;2023-12-20T10:16:50;5.67;;;1.67;;
19579;SDS011;9936;51.040;13.918;2023-12-20T10:20:37;3.13;;;1.40;;
19579;SDS011;9936;51.040;13.918;2023-12-20T10:24:22;2.67;;;1.50;;
19579;SDS011;9936;51.040;13.918;2023-12-20T10:28:15;5.77;;;1.57;;
19579;SDS011;9936;51.040;13.918;2023-12-20T10:36:12;2.37;;;1.50;;
19579;SDS011;9936;51.040;13.918;2023-12-20T10:39:58;3.43;;;1.50;;
19579;SDS011;9936;51.040;13.918;2023-12-20T10:43:47;1.83;;;1.10;;
19579;SDS011;9936;51.040;13.918;2023-12-20T10:47:33;1.83;;;1.33;;
19579;SDS011;9936;51.040;13.918;2023-12-20T10:51:21;6.63;;;1.33;;
19579;SDS011;9936;51.040;13.918;2023-12-20T10:55:08;7.10;;;2.10;;
19579;SDS011;9936;51.040;13.918;2023-12-20T10:58:54;6.03;;;1.57;;
19579;SDS011;9936;51.040;13.918;2023-12-20T11:02:44;5.53;;;1.40;;
19579;SDS011;9936;51.040;13.918;2023-12-20T11:06:40;3.23;;;1.10;;
19579;SDS011;9936;51.040;13.918;2023-12-20T11:11:17;3.47;;;1.80;;
19579;SDS011;9936;51.040;13.918;2023-12-20T11:14:54;2.73;;;1.17;;
19579;SDS011;9936;51.040;13.918;2023-12-20T11:18:42;6.63;;;1.80;;
19579;SDS011;9936;51.040;13.918;2023-12-20T11:22:31;5.17;;;1.60;;
19579;SDS011;9936;51.040;13.918;2023-12-20T11:26:17;4.77;;;1.63;;
19579;SDS011;9936;51.040;13.918;2023-12-20T11:30:11;7.10;;;1.67;;
19579;SDS011;9936;51.040;13.918;2023-12-20T11:34:12;4.10;;;1.60;;
19579;SDS011;9936;51.040;13.918;2023-12-20T11:37:59;3.77;;;1.60;;
19579;SDS011;9936;51.040;13.918;2023-12-20T11:41:46;5.10;;;1.60;;
19579;SDS011;9936;51.040;13.918;2023-12-20T11:45:33;4.10;;;1.33;;
19579;SDS011;9936;51.040;13.918;2023-12-20T11:49:22;3.50;;;2.13;;
19579;SDS011;9936;51.040;13.918;2023-12-20T11:53:08;7.10;;;2.43;;
19579;SDS011;9936;51.040;13.918;2023-12-20T11:56:55;4.20;;;1.53;;
19579;SDS011;9936;51.040;13.918;2023-12-20T12:00:41;3.23;;;1.70;;
19579;SDS011;9936;51.040;13.918;2023-12-20T12:04:28;4.00;;;1.70;;
19579;SDS011;9936;51.040;13.918;2023-12-20T12:08:13;4.00;;;1.67;;
19579;SDS011;9936;51.040;13.918;2023-12-20T12:11:59;3.77;;;1.97;;
19579;SDS011;9936;51.040;13.918;2023-12-20T12:15:46;5.60;;;1.80;;
19579;SDS011;9936;51.040;13.918;2023-12-20T12:19:33;5.00;;;1.57;;
19579;SDS011;9936;51.040;13.918;2023-12-20T12:23:24;7.13;;;1.30;;
19579;SDS011;9936;51.040;13.918;2023-12-20T12:27:11;4.90;;;2.10;;
19579;SDS011;9936;51.040;13.918;2023-12-20T12:31:00;6.13;;;1.67;;
19579;SDS011;9936;51.040;13.918;2023-12-20T12:34:46;2.80;;;1.77;;
19579;SDS011;9936;51.040;13.918;2023-12-20T12:38:32;4.87;;;1.83;;
19579;SDS011;9936;51.040;13.918;2023-12-20T12:42:19;7.80;;;1.73;;
19579;SDS011;9936;51.040;13.918;2023-12-20T12:46:05;5.10;;;1.73;;
19579;SDS011;9936;51.040;13.918;2023-12-20T12:49:51;4.97;;;2.00;;
19579;SDS011;9936;51.040;13.918;2023-12-20T12:53:38;3.87;;;1.53;;
19579;SDS011;9936;51.040;13.918;2023-12-20T12:57:24;5.07;;;1.50;;
19579;SDS011;9936;51.040;13.918;2023-12-20T13:01:10;3.63;;;1.83;;
19579;SDS011;9936;51.040;13.918;2023-12-20T13:04:56;5.23;;;1.60;;
19579;SDS011;9936;51.040;13.918;2023-12-20T13:08:41;3.83;;;1.43;;
19579;SDS011;9936;51.040;13.918;2023-12-20T13:12:27;3.33;;;1.63;;
19579;SDS011;9936;51.040;13.918;2023-12-20T13:16:12;3.67;;;1.93;;
19579;SDS011;9936;51.040;13.918;2023-12-20T13:19:59;4.27;;;1.50;;
19579;SDS011;9936;51.040;13.918;2023-12-20T13:23:44;2.70;;;1.47;;
19579;SDS011;9936;51.040;13.918;2023-12-20T13:27:30;4.90;;;3.40;;
19579;SDS011;9936;51.040;13.918;2023-12-20T13:31:16;3.43;;;1.40;;
19579;SDS011;9936;51.040;13.918;2023-12-20T13:35:01;6.17;;;2.77;;
19579;SDS011;9936;51.040;13.918;2023-12-20T13:38:49;7.97;;;2.10;;
19579;SDS011;9936;51.040;13.918;2023-12-20T13:42:35;4.63;;;1.40;;
19579;SDS011;9936;51.040;13.918;2023-12-20T13:46:20;4.03;;;1.50;;
19579;SDS011;9936;51.040;13.918;2023-12-20T13:50:06;3.37;;;1.90;;
19579;SDS011;9936;51.040;13.918;2023-12-20T13:53:52;5.17;;;2.00;;
19579;SDS011;9936;51.040;13.918;2023-12-20T13:57:38;5.30;;;1.70;;
19579;SDS011;9936;51.040;13.918;2023-12-20T14:01:24;5.20;;;1.90;;
19579;SDS011;9936;51.040;13.918;2023-12-20T14:05:12;5.43;;;1.70;;
19579;SDS011;9936;51.040;13.918;2023-12-20T14:08:59;7.70;;;1.40;;
19579;SDS011;9936;51.040;13.918;2023-12-20T14:12:48;5.03;;;2.43;;
19579;SDS011;9936;51.040;13.918;2023-12-20T14:16:34;5.40;;;1.87;;
19579;SDS011;9936;51.040;13.918;2023-12-20T14:20:20;2.20;;;1.30;;
19579;SDS011;9936;51.040;13.918;2023-12-20T14:24:05;2.13;;;1.40;;
19579;SDS011;9936;51.040;13.918;2023-12-20T14:27:51;5.10;;;1.70;;
19579;SDS011;9936;51.040;13.918;2023-12-20T14:31:37;5.53;;;2.00;;
19579;SDS011;9936;51.040;13.918;2023-12-20T14:35:23;3.47;;;1.37;;
19579;SDS011;9936;51.040;13.918;2023-12-20T14:39:09;4.53;;;1.70;;
19579;SDS011;9936;51.040;13.918;2023-12-20T14:42:57;3.50;;;1.07;;
19579;SDS011;9936;51.040;13.918;2023-12-20T14:46:44;3.27;;;1.37;;
19579;SDS011;9936;51.040;13.918;2023-12-20T14:50:29;3.67;;;1.40;;
19579;SDS011;9936;51.040;13.918;2023-12-20T14:54:15;4.97;;;2.10;;
19579;SDS011;9936;51.040;13.918;2023-12-20T14:58:01;3.20;;;1.40;;
19579;SDS011;9936;51.040;13.918;2023-12-20T15:01:47;3.10;;;1.60;;
19579;SDS011;9936;51.040;13.918;2023-12-20T15:05:32;1.77;;;1.10;;
19579;SDS011;9936;51.040;13.918;2023-12-20T15:09:18;2.77;;;1.23;;
19579;SDS011;9936;51.040;13.918;2023-12-20T15:13:03;4.63;;;1.10;;
19579;SDS011;9936;51.040;13.918;2023-12-20T15:16:49;2.23;;;1.10;;
19579;SDS011;9936;51.040;13.918;2023-12-20T15:20:35;2.17;;;1.20;;
19579;SDS011;9936;51.040;13.918;2023-12-20T15:24:21;6.50;;;1.50;;
19579;SDS011;9936;51.040;13.918;2023-12-20T15:28:13;2.03;;;1.80;;
19579;SDS011;9936;51.040;13.918;2023-12-20T15:31:59;4.07;;;1.43;;
19579;SDS011;9936;51.040;13.918;2023-12-20T15:35:44;4.70;;;1.40;;
19579;SDS011;9936;51.040;13.918;2023-12-20T15:39:30;3.73;;;1.67;;
19579;SDS011;9936;51.040;13.918;2023-12-20T15:43:16;3.20;;;1.70;;
19579;SDS011;9936;51.040;13.918;2023-12-20T15:47:01;5.10;;;1.70;;
19579;SDS011;9936;51.040;13.918;2023-12-20T15:50:47;3.37;;;2.00;;
19579;SDS011;9936;51.040;13.918;2023-12-20T15:54:33;7.57;;;2.43;;
19579;SDS011;9936;51.040;13.918;2023-12-20T15:58:19;2.10;;;1.33;;
19579;SDS011;9936;51.040;13.918;2023-12-20T16:02:04;2.60;;;1.23;;
19579;SDS011;9936;51.040;13.918;2023-12-20T16:05:50;2.80;;;1.50;;
19579;SDS011;9936;51.040;13.918;2023-12-20T16:09:35;2.20;;;1.10;;
19579;SDS011;9936;51.040;13.918;2023-12-20T16:13:21;6.33;;;1.93;;
19579;SDS011;9936;51.040;13.918;2023-12-20T16:17:06;3.47;;;1.90;;
19579;SDS011;9936;51.040;13.918;2023-12-20T16:20:52;2.53;;;1.30;;
19579;SDS011;9936;51.040;13.918;2023-12-20T16:24:40;2.80;;;1.70;;
19579;SDS011;9936;51.040;13.918;2023-12-20T16:28:26;2.80;;;1.20;;
19579;SDS011;9936;51.040;13.918;2023-12-20T16:32:13;2.77;;;1.60;;
19579;SDS011;9936;51.040;13.918;2023-12-20T16:36:00;3.60;;;1.40;;
19579;SDS011;9936;51.040;13.918;2023-12-20T16:39:46;2.70;;;1.60;;
19579;SDS011;9936;51.040;13.918;2023-12-20T16:43:32;2.97;;;1.50;;
19579;SDS011;9936;51.040;13.918;2023-12-20T16:47:17;3.80;;;1.70;;
19579;SDS011;9936;51.040;13.918;2023-12-20T16:51:03;4.57;;;1.73;;
19579;SDS011;9936;51.040;13.918;2023-12-20T16:54:49;2.23;;;1.50;;
19579;SDS011;9936;51.040;13.918;2023-12-20T16:58:34;3.03;;;1.67;;
19579;SDS011;9936;51.040;13.918;2023-12-20T17:02:20;3.63;;;1.80;;
19579;SDS011;9936;51.040;13.918;2023-12-20T17:06:07;5.97;;;2.63;;
19579;SDS011;9936;51.040;13.918;2023-12-20T17:09:53;4.63;;;2.00;;
19579;SDS011;9936;51.040;13.918;2023-12-20T17:13:38;4.30;;;1.33;;
19579;SDS011;9936;51.040;13.918;2023-12-20T17:17:24;2.47;;;1.77;;
19579;SDS011;9936;51.040;13.918;2023-12-20T17:21:10;2.23;;;1.30;;
19579;SDS011;9936;51.040;13.918;2023-12-20T17:24:57;4.17;;;1.67;;
19579;SDS011;9936;51.040;13.918;2023-12-20T17:28:43;3.00;;;1.67;;
19579;SDS011;9936;51.040;13.918;2023-12-20T17:32:29;3.53;;;2.00;;
19579;SDS011;9936;51.040;13.918;2023-12-20T17:36:15;3.47;;;1.53;;
19579;SDS011;9936;51.040;13.918;2023-12-20T17:40:01;3.43;;;1.80;;
19579;SDS011;9936;51.040;13.918;2023-12-20T17:43:47;3.73;;;1.87;;
19579;SDS011;9936;51.040;13.918;2023-12-20T17:47:33;4.43;;;1.60;;
19579;SDS011;9936;51.040;13.918;2023-12-20T17:51:18;5.93;;;2.03;;
19579;SDS011;9936;51.040;13.918;2023-12-20T17:55:04;3.73;;;1.80;;
19579;SDS011;9936;51.040;13.918;2023-12-20T17:58:51;5.30;;;2.43;;
19579;SDS011;9936;51.040;13.918;2023-12-20T18:02:39;3.43;;;1.87;;
19579;SDS011;9936;51.040;13.918;2023-12-20T18:06:25;5.87;;;2.43;;
19579;SDS011;9936;51.040;13.918;2023-12-20T18:10:10;8.10;;;2.57;;
19579;SDS011;9936;51.040;13.918;2023-12-20T18:13:57;7.07;;;2.47;;
19579;SDS011;9936;51.040;13.918;2023-12-20T18:17:43;5.10;;;2.60;;
19579;SDS011;9936;51.040;13.918;2023-12-20T18:21:29;5.40;;;2.63;;
19579;SDS011;9936;51.040;13.918;2023-12-20T18:25:15;4.07;;;2.30;;
19579;SDS011;9936;51.040;13.918;2023-12-20T18:29:01;17.37;;;7.43;;
19579;SDS011;9936;51.040;13.918;2023-12-20T18:32:47;8.30;;;4.70;;
19579;SDS011;9936;51.040;13.918;2023-12-20T18:36:33;7.77;;;4.53;;
19579;SDS011;9936;51.040;13.918;2023-12-20T18:40:19;18.00;;;9.80;;
19579;SDS011;9936;51.040;13.918;2023-12-20T18:44:05;14.37;;;7.77;;
19579;SDS011;9936;51.040;13.918;2023-12-20T18:47:51;8.37;;;4.27;;
19579;SDS011;9936;51.040;13.918;2023-12-20T18:51:38;8.50;;;3.77;;
19579;SDS011;9936;51.040;13.918;2023-12-20T18:55:24;9.87;;;3.30;;
19579;SDS011;9936;51.040;13.918;2023-12-20T18:59:10;7.70;;;3.33;;
19579;SDS011;9936;51.040;13.918;2023-12-20T19:02:58;7.67;;;3.20;;
19579;SDS011;9936;51.040;13.918;2023-12-20T19:06:43;4.33;;;2.70;;
19579;SDS011;9936;51.040;13.918;2023-12-20T19:10:29;6.00;;;3.07;;
19579;SDS011;9936;51.040;13.918;2023-12-20T19:14:14;6.80;;;2.60;;
19579;SDS011;9936;51.040;13.918;2023-12-20T19:18:00;10.23;;;5.40;;
19579;SDS011;9936;51.040;13.918;2023-12-20T19:21:46;6.93;;;3.27;;
19579;SDS011;9936;51.040;13.918;2023-12-20T19:25:32;6.83;;;4.13;;
19579;SDS011;9936;51.040;13.918;2023-12-20T19:29:18;5.40;;;3.90;;
19579;SDS011;9936;51.040;13.918;2023-12-20T19:33:04;7.47;;;3.27;;
19579;SDS011;9936;51.040;13.918;2023-12-20T19:36:49;5.10;;;3.10;;
19579;SDS011;9936;51.040;13.918;2023-12-20T19:40:35;6.00;;;3.70;;
19579;SDS011;9936;51.040;13.918;2023-12-20T19:44:22;5.20;;;3.40;;
19579;SDS011;9936;51.040;13.918;2023-12-20T19:48:08;5.47;;;3.20;;
19579;SDS011;9936;51.040;13.918;2023-12-20T19:51:53;7.80;;;3.60;;
19579;SDS011;9936;51.040;13.918;2023-12-20T19:55:39;5.53;;;3.17;;
19579;SDS011;9936;51.040;13.918;2023-12-20T19:59:25;6.27;;;2.93;;
19579;SDS011;9936;51.040;13.918;2023-12-20T20:03:10;6.83;;;3.00;;
19579;SDS011;9936;51.040;13.918;2023-12-20T20:06:56;9.33;;;2.77;;
19579;SDS011;9936;51.040;13.918;2023-12-20T20:10:42;5.37;;;2.90;;
19579;SDS011;9936;51.040;13.918;2023-12-20T20:14:28;4.87;;;2.83;;
19579;SDS011;9936;51.040;13.918;2023-12-20T20:18:13;8.40;;;2.87;;
19579;SDS011;9936;51.040;13.918;2023-12-20T20:22:00;8.27;;;3.13;;
19579;SDS011;9936;51.040;13.918;2023-12-20T20:25:45;3.67;;;2.33;;
19579;SDS011;9936;51.040;13.918;2023-12-20T20:29:31;4.27;;;2.50;;
19579;SDS011;9936;51.040;13.918;2023-12-20T20:33:17;4.00;;;2.50;;
19579;SDS011;9936;51.040;13.918;2023-12-20T20:37:02;4.50;;;2.50;;
19579;SDS011;9936;51.040;13.918;2023-12-20T20:40:48;5.63;;;2.20;;
19579;SDS011;9936;51.040;13.918;2023-12-20T20:44:36;4.97;;;2.33;;
19579;SDS011;9936;51.040;13.918;2023-12-20T20:48:22;6.43;;;2.13;;
19579;SDS011;9936;51.040;13.918;2023-12-20T20:52:08;3.63;;;2.07;;
19579;SDS011;9936;51.040;13.918;2023-12-20T20:55:54;1.97;;;1.70;;
19579;SDS011;9936;51.040;13.918;2023-12-20T20:59:40;3.00;;;1.53;;
19579;SDS011;9936;51.040;13.918;2023-12-20T21:03:28;2.30;;;1.60;;
19579;SDS011;9936;51.040;13.918;2023-12-20T21:07:14;1.30;;;1.10;;
19579;SDS011;9936;51.040;13.918;2023-12-20T21:10:59;2.80;;;1.40;;
19579;SDS011;9936;51.040;13.918;2023-12-20T21:14:45;2.83;;;1.20;;
19579;SDS011;9936;51.040;13.918;2023-12-20T21:18:32;1.73;;;1.20;;
19579;SDS011;9936;51.040;13.918;2023-12-20T21:22:17;3.13;;;1.10;;
19579;SDS011;9936;51.040;13.918;2023-12-20T21:26:03;1.47;;;1.10;;
19579;SDS011;9936;51.040;13.918;2023-12-20T21:29:50;1.93;;;1.13;;
19579;SDS011;9936;51.040;13.918;2023-12-20T21:33:37;1.07;;;0.93;;
19579;SDS011;9936;51.040;13.918;2023-12-20T21:37:26;2.80;;;1.23;;
19579;SDS011;9936;51.040;13.918;2023-12-20T21:41:12;1.93;;;1.40;;
19579;SDS011;9936;51.040;13.918;2023-12-20T21:44:58;2.67;;;1.00;;
19579;SDS011;9936;51.040;13.918;2023-12-20T21:48:43;1.67;;;1.10;;
19579;SDS011;9936;51.040;13.918;2023-12-20T21:52:29;1.80;;;1.13;;
19579;SDS011;9936;51.040;13.918;2023-12-20T21:56:15;1.40;;;1.00;;
19579;SDS011;9936;51.040;13.918;2023-12-20T22:00:00;2.67;;;0.93;;
19579;SDS011;9936;51.040;13.918;2023-12-20T22:03:46;2.80;;;1.00;;
19579;SDS011;9936;51.040;13.918;2023-12-20T22:07:32;1.50;;;1.00;;
19579;SDS011;9936;51.040;13.918;2023-12-20T22:11:18;1.70;;;1.20;;
19579;SDS011;9936;51.040;13.918;2023-12-20T22:15:03;1.40;;;0.93;;
19579;SDS011;9936;51.040;13.918;2023-12-20T22:18:49;2.70;;;1.20;;
19579;SDS011;9936;51.040;13.918;2023-12-20T22:22:35;1.67;;;0.87;;
19579;SDS011;9936;51.040;13.918;2023-12-20T22:26:21;1.00;;;0.70;;
19579;SDS011;9936;51.040;13.918;2023-12-20T22:30:06;0.80;;;0.80;;
19579;SDS011;9936;51.040;13.918;2023-12-20T22:33:53;1.70;;;0.87;;
19579;SDS011;9936;51.040;13.918;2023-12-20T22:37:39;0.70;;;0.70;;
19579;SDS011;9936;51.040;13.918;2023-12-20T22:41:26;1.47;;;0.93;;
19579;SDS011;9936;51.040;13.918;2023-12-20T22:45:12;1.07;;;0.73;;
19579;SDS011;9936;51.040;13.918;2023-12-20T22:48:58;0.73;;;0.60;;